sensor_id;sensor_type;location;lat;lon;timestamp;temperature;humidity
8172;DHT22;4127;47.908;10.850;2023-12-20T00:01:15;5.70;95.90
8172;DHT22;4127;47.908;10.850;2023-12-20T00:03:42;5.70;96.10
8172;DHT22;4127;47.908;10.850;2023-12-20T00:06:09;5.70;96.30
8172;DHT22;4127;47.908;10.850;2023-12-20T00:08:38;5.70;95.90
8172;DHT22;4127;47.908;10.850;2023-12-20T00:11:05;5.70;96.30
8172;DHT22;4127;47.908;10.850;2023-12-20T00:13:32;5.70;96.50
8172;DHT22;4127;47.908;10.850;2023-12-20T00:15:59;5.70;96.70
8172;DHT22;4127;47.908;10.850;2023-12-20T00:18:26;5.70;96.90
8172;DHT22;4127;47.908;10.850;2023-12-20T00:20:53;5.70;96.20
8172;DHT22;4127;47.908;10.850;2023-12-20T00:23:20;5.70;95.90
8172;DHT22;4127;47.908;10.850;2023-12-20T00:25:49;5.80;95.70
8172;DHT22;4127;47.908;10.850;2023-12-20T00:28:17;5.80;95.90
8172;DHT22;4127;47.908;10.850;2023-12-20T00:30:44;5.80;95.70
8172;DHT22;4127;47.908;10.850;2023-12-20T00:33:11;5.80;95.80
8172;DHT22;4127;47.908;10.850;2023-12-20T00:35:38;5.80;95.90
8172;DHT22;4127;47.908;10.850;2023-12-20T00:38:05;5.80;95.90
8172;DHT22;4127;47.908;10.850;2023-12-20T00:40:34;5.80;95.70
8172;DHT22;4127;47.908;10.850;2023-12-20T00:43:01;5.80;95.50
8172;DHT22;4127;47.908;10.850;2023-12-20T00:45:28;5.90;95.70
8172;DHT22;4127;47.908;10.850;2023-12-20T00:47:56;5.90;95.70
8172;DHT22;4127;47.908;10.850;2023-12-20T00:50:24;5.80;95.80
8172;DHT22;4127;47.908;10.850;2023-12-20T00:52:57;5.90;96.00
8172;DHT22;4127;47.908;10.850;2023-12-20T00:55:29;5.80;96.30
8172;DHT22;4127;47.908;10.850;2023-12-20T00:57:56;5.80;96.40
8172;DHT22;4127;47.908;10.850;2023-12-20T01:00:24;5.80;96.60
8172;DHT22;4127;47.908;10.850;2023-12-20T01:02:51;5.80;96.90
8172;DHT22;4127;47.908;10.850;2023-12-20T01:05:18;5.80;96.80
8172;DHT22;4127;47.908;10.850;2023-12-20T01:07:47;5.80;97.20
8172;DHT22;4127;47.908;10.850;2023-12-20T01:10:15;5.70;97.20
8172;DHT22;4127;47.908;10.850;2023-12-20T01:12:45;5.70;97.40
8172;DHT22;4127;47.908;10.850;2023-12-20T01:15:12;5.70;97.60
8172;DHT22;4127;47.908;10.850;2023-12-20T01:17:40;5.70;97.40
8172;DHT22;4127;47.908;10.850;2023-12-20T01:20:08;5.70;97.60
8172;DHT22;4127;47.908;10.850;2023-12-20T01:22:35;5.70;97.90
8172;DHT22;4127;47.908;10.850;2023-12-20T01:25:03;5.70;98.10
8172;DHT22;4127;47.908;10.850;2023-12-20T01:27:30;5.70;98.20
8172;DHT22;4127;47.908;10.850;2023-12-20T01:29:58;5.70;98.60
8172;DHT22;4127;47.908;10.850;2023-12-20T01:32:24;5.70;99.00
8172;DHT22;4127;47.908;10.850;2023-12-20T01:34:52;5.70;99.50
8172;DHT22;4127;47.908;10.850;2023-12-20T01:37:19;5.70;99.90
8172;DHT22;4127;47.908;10.850;2023-12-20T01:39:55;5.70;99.90
8172;DHT22;4127;47.908;10.850;2023-12-20T01:42:31;5.70;99.90
8172;DHT22;4127;47.908;10.850;2023-12-20T01:44:57;5.70;99.90
8172;DHT22;4127;47.908;10.850;2023-12-20T01:47:25;5.60;99.90
8172;DHT22;4127;47.908;10.850;2023-12-20T01:49:55;5.60;99.90
8172;DHT22;4127;47.908;10.850;2023-12-20T01:52:25;5.60;99.90
8172;DHT22;4127;47.908;10.850;2023-12-20T01:54:56;5.60;99.90
8172;DHT22;4127;47.908;10.850;2023-12-20T01:57:30;5.60;99.90
8172;DHT22;4127;47.908;10.850;2023-12-20T01:59:58;5.60;99.90
8172;DHT22;4127;47.908;10.850;2023-12-20T02:02:26;5.60;99.90
8172;DHT22;4127;47.908;10.850;2023-12-20T02:05:00;5.60;99.90
8172;DHT22;4127;47.908;10.850;2023-12-20T02:07:31;5.70;99.90
8172;DHT22;4127;47.908;10.850;2023-12-20T02:09:58;5.60;99.90
8172;DHT22;4127;47.908;10.850;2023-12-20T02:12:25;5.60;99.90
8172;DHT22;4127;47.908;10.850;2023-12-20T02:14:51;5.70;99.90
8172;DHT22;4127;47.908;10.850;2023-12-20T02:17:19;5.70;99.90
8172;DHT22;4127;47.908;10.850;2023-12-20T02:19:46;5.70;99.90
8172;DHT22;4127;47.908;10.850;2023-12-20T02:22:13;5.80;99.90
8172;DHT22;4127;47.908;10.850;2023-12-20T02:24:41;5.80;99.90
8172;DHT22;4127;47.908;10.850;2023-12-20T02:27:08;5.80;99.90
8172;DHT22;4127;47.908;10.850;2023-12-20T02:29:35;5.80;99.90
8172;DHT22;4127;47.908;10.850;2023-12-20T02:32:05;5.80;99.90
8172;DHT22;4127;47.908;10.850;2023-12-20T02:34:32;5.80;99.90
8172;DHT22;4127;47.908;10.850;2023-12-20T02:36:59;5.80;99.90
8172;DHT22;4127;47.908;10.850;2023-12-20T02:39:26;5.80;99.90
8172;DHT22;4127;47.908;10.850;2023-12-20T02:41:53;5.80;99.90
8172;DHT22;4127;47.908;10.850;2023-12-20T02:44:21;5.70;99.90
8172;DHT22;4127;47.908;10.850;2023-12-20T02:46:48;5.70;99.90
8172;DHT22;4127;47.908;10.850;2023-12-20T02:49:17;5.80;99.90
8172;DHT22;4127;47.908;10.850;2023-12-20T02:51:45;5.80;99.90
8172;DHT22;4127;47.908;10.850;2023-12-20T02:54:14;5.80;99.90
8172;DHT22;4127;47.908;10.850;2023-12-20T02:56:41;5.80;99.90
8172;DHT22;4127;47.908;10.850;2023-12-20T02:59:08;5.80;99.90
8172;DHT22;4127;47.908;10.850;2023-12-20T03:01:42;5.80;99.90
8172;DHT22;4127;47.908;10.850;2023-12-20T03:04:11;5.80;99.90
8172;DHT22;4127;47.908;10.850;2023-12-20T03:06:38;5.80;99.90
8172;DHT22;4127;47.908;10.850;2023-12-20T03:09:05;5.80;99.90
8172;DHT22;4127;47.908;10.850;2023-12-20T03:11:32;5.80;99.90
8172;DHT22;4127;47.908;10.850;2023-12-20T03:13:59;5.80;99.90
8172;DHT22;4127;47.908;10.850;2023-12-20T03:16:26;5.80;99.90
8172;DHT22;4127;47.908;10.850;2023-12-20T03:18:53;5.80;99.90
8172;DHT22;4127;47.908;10.850;2023-12-20T03:21:20;5.80;99.90
8172;DHT22;4127;47.908;10.850;2023-12-20T03:23:47;5.80;99.90
8172;DHT22;4127;47.908;10.850;2023-12-20T03:26:19;5.80;99.90
8172;DHT22;4127;47.908;10.850;2023-12-20T03:28:46;5.80;99.90
8172;DHT22;4127;47.908;10.850;2023-12-20T03:31:19;5.80;99.90
8172;DHT22;4127;47.908;10.850;2023-12-20T03:33:47;5.80;99.90
8172;DHT22;4127;47.908;10.850;2023-12-20T03:36:15;5.90;99.90
8172;DHT22;4127;47.908;10.850;2023-12-20T03:38:41;5.90;99.90
8172;DHT22;4127;47.908;10.850;2023-12-20T03:41:08;5.90;99.90
8172;DHT22;4127;47.908;10.850;2023-12-20T03:43:35;5.80;99.90
8172;DHT22;4127;47.908;10.850;2023-12-20T03:46:03;5.90;99.90
8172;DHT22;4127;47.908;10.850;2023-12-20T03:48:31;5.90;99.90
8172;DHT22;4127;47.908;10.850;2023-12-20T03:50:58;5.90;99.90
8172;DHT22;4127;47.908;10.850;2023-12-20T03:53:26;5.80;99.90
8172;DHT22;4127;47.908;10.850;2023-12-20T03:55:53;5.80;99.90
8172;DHT22;4127;47.908;10.850;2023-12-20T03:58:20;5.70;99.90
8172;DHT22;4127;47.908;10.850;2023-12-20T04:00:54;5.50;99.90
8172;DHT22;4127;47.908;10.850;2023-12-20T04:03:25;5.50;99.90
8172;DHT22;4127;47.908;10.850;2023-12-20T04:05:52;5.40;99.90
8172;DHT22;4127;47.908;10.850;2023-12-20T04:08:19;5.30;99.90
8172;DHT22;4127;47.908;10.850;2023-12-20T04:10:46;5.30;99.90
8172;DHT22;4127;47.908;10.850;2023-12-20T04:13:13;5.30;99.90
8172;DHT22;4127;47.908;10.850;2023-12-20T04:15:40;5.20;99.90
8172;DHT22;4127;47.908;10.850;2023-12-20T04:18:07;5.20;99.90
8172;DHT22;4127;47.908;10.850;2023-12-20T04:20:34;5.20;99.90
8172;DHT22;4127;47.908;10.850;2023-12-20T04:23:01;5.20;99.90
8172;DHT22;4127;47.908;10.850;2023-12-20T04:25:27;5.20;99.90
8172;DHT22;4127;47.908;10.850;2023-12-20T04:27:54;5.10;99.90
8172;DHT22;4127;47.908;10.850;2023-12-20T04:30:21;5.10;99.90
8172;DHT22;4127;47.908;10.850;2023-12-20T04:32:48;5.10;99.90
8172;DHT22;4127;47.908;10.850;2023-12-20T04:35:15;5.10;99.90
8172;DHT22;4127;47.908;10.850;2023-12-20T04:37:42;5.10;99.90
8172;DHT22;4127;47.908;10.850;2023-12-20T04:40:09;5.10;99.90
8172;DHT22;4127;47.908;10.850;2023-12-20T04:42:38;5.10;99.90
8172;DHT22;4127;47.908;10.850;2023-12-20T04:45:06;5.10;99.90
8172;DHT22;4127;47.908;10.850;2023-12-20T04:47:33;5.10;99.90
8172;DHT22;4127;47.908;10.850;2023-12-20T04:50:00;5.10;99.90
8172;DHT22;4127;47.908;10.850;2023-12-20T04:52:29;5.10;99.90
8172;DHT22;4127;47.908;10.850;2023-12-20T04:54:56;5.10;99.90
8172;DHT22;4127;47.908;10.850;2023-12-20T04:57:22;5.10;99.90
8172;DHT22;4127;47.908;10.850;2023-12-20T04:59:49;5.10;99.90
8172;DHT22;4127;47.908;10.850;2023-12-20T05:02:16;5.10;99.90
8172;DHT22;4127;47.908;10.850;2023-12-20T05:04:43;5.10;99.90
8172;DHT22;4127;47.908;10.850;2023-12-20T05:07:10;5.00;99.90
8172;DHT22;4127;47.908;10.850;2023-12-20T05:09:37;5.00;99.90
8172;DHT22;4127;47.908;10.850;2023-12-20T05:12:07;5.00;99.90
8172;DHT22;4127;47.908;10.850;2023-12-20T05:14:34;4.90;99.90
8172;DHT22;4127;47.908;10.850;2023-12-20T05:17:01;4.90;99.90
8172;DHT22;4127;47.908;10.850;2023-12-20T05:19:51;4.90;99.90
8172;DHT22;4127;47.908;10.850;2023-12-20T05:22:20;4.80;99.90
8172;DHT22;4127;47.908;10.850;2023-12-20T05:24:49;4.70;99.90
8172;DHT22;4127;47.908;10.850;2023-12-20T05:27:26;4.70;99.90
8172;DHT22;4127;47.908;10.850;2023-12-20T05:30:35;4.60;99.90
8172;DHT22;4127;47.908;10.850;2023-12-20T05:33:17;4.50;99.90
8172;DHT22;4127;47.908;10.850;2023-12-20T05:35:44;4.50;99.90
8172;DHT22;4127;47.908;10.850;2023-12-20T05:38:11;4.50;99.90
8172;DHT22;4127;47.908;10.850;2023-12-20T05:40:38;4.40;99.90
8172;DHT22;4127;47.908;10.850;2023-12-20T05:43:05;4.40;99.90
8172;DHT22;4127;47.908;10.850;2023-12-20T05:45:55;4.30;99.90
8172;DHT22;4127;47.908;10.850;2023-12-20T05:48:35;4.30;99.90
8172;DHT22;4127;47.908;10.850;2023-12-20T05:51:12;4.30;99.90
8172;DHT22;4127;47.908;10.850;2023-12-20T05:53:39;4.20;99.90
8172;DHT22;4127;47.908;10.850;2023-12-20T05:56:10;4.20;99.90
8172;DHT22;4127;47.908;10.850;2023-12-20T05:58:40;4.20;99.90
8172;DHT22;4127;47.908;10.850;2023-12-20T06:01:08;4.20;99.90
8172;DHT22;4127;47.908;10.850;2023-12-20T06:03:35;4.10;99.90
8172;DHT22;4127;47.908;10.850;2023-12-20T06:06:06;4.10;99.90
8172;DHT22;4127;47.908;10.850;2023-12-20T06:08:43;4.00;99.90
8172;DHT22;4127;47.908;10.850;2023-12-20T06:11:19;4.00;99.90
8172;DHT22;4127;47.908;10.850;2023-12-20T06:13:58;4.00;99.90
8172;DHT22;4127;47.908;10.850;2023-12-20T06:16:36;3.90;99.90
8172;DHT22;4127;47.908;10.850;2023-12-20T06:19:13;3.90;99.90
8172;DHT22;4127;47.908;10.850;2023-12-20T06:21:40;3.90;99.90
8172;DHT22;4127;47.908;10.850;2023-12-20T06:24:10;3.90;99.90
8172;DHT22;4127;47.908;10.850;2023-12-20T06:26:37;3.80;99.90
8172;DHT22;4127;47.908;10.850;2023-12-20T06:29:07;3.80;99.90
8172;DHT22;4127;47.908;10.850;2023-12-20T06:31:38;3.70;99.90
8172;DHT22;4127;47.908;10.850;2023-12-20T06:34:16;3.70;99.90
8172;DHT22;4127;47.908;10.850;2023-12-20T06:36:43;3.70;99.90
8172;DHT22;4127;47.908;10.850;2023-12-20T06:39:29;3.60;99.90
8172;DHT22;4127;47.908;10.850;2023-12-20T06:42:04;3.50;99.90
8172;DHT22;4127;47.908;10.850;2023-12-20T06:44:36;3.50;99.90
8172;DHT22;4127;47.908;10.850;2023-12-20T06:47:04;3.50;99.90
8172;DHT22;4127;47.908;10.850;2023-12-20T06:49:31;3.50;99.90
8172;DHT22;4127;47.908;10.850;2023-12-20T06:51:58;3.50;99.90
8172;DHT22;4127;47.908;10.850;2023-12-20T06:54:25;3.50;99.90
8172;DHT22;4127;47.908;10.850;2023-12-20T06:56:52;3.50;99.90
8172;DHT22;4127;47.908;10.850;2023-12-20T06:59:18;3.50;99.90
8172;DHT22;4127;47.908;10.850;2023-12-20T07:01:49;3.50;99.90
8172;DHT22;4127;47.908;10.850;2023-12-20T07:04:16;3.50;99.90
8172;DHT22;4127;47.908;10.850;2023-12-20T07:06:48;3.50;99.90
8172;DHT22;4127;47.908;10.850;2023-12-20T07:09:18;3.50;99.90
8172;DHT22;4127;47.908;10.850;2023-12-20T07:11:45;3.50;99.90
8172;DHT22;4127;47.908;10.850;2023-12-20T07:14:12;3.60;99.90
8172;DHT22;4127;47.908;10.850;2023-12-20T07:16:39;3.50;99.90
8172;DHT22;4127;47.908;10.850;2023-12-20T07:19:06;3.50;99.90
8172;DHT22;4127;47.908;10.850;2023-12-20T07:21:33;3.40;99.90
8172;DHT22;4127;47.908;10.850;2023-12-20T07:24:00;3.50;99.90
8172;DHT22;4127;47.908;10.850;2023-12-20T07:26:27;3.40;99.90
8172;DHT22;4127;47.908;10.850;2023-12-20T07:28:54;3.40;99.90
8172;DHT22;4127;47.908;10.850;2023-12-20T07:31:20;3.40;99.90
8172;DHT22;4127;47.908;10.850;2023-12-20T07:33:48;3.40;99.90
8172;DHT22;4127;47.908;10.850;2023-12-20T07:36:15;3.40;99.90
8172;DHT22;4127;47.908;10.850;2023-12-20T07:38:42;3.40;99.90
8172;DHT22;4127;47.908;10.850;2023-12-20T07:41:10;3.30;99.90
8172;DHT22;4127;47.908;10.850;2023-12-20T07:43:37;3.30;99.90
8172;DHT22;4127;47.908;10.850;2023-12-20T07:46:06;3.30;99.90
8172;DHT22;4127;47.908;10.850;2023-12-20T07:48:34;3.30;99.90
8172;DHT22;4127;47.908;10.850;2023-12-20T07:51:02;3.30;99.90
8172;DHT22;4127;47.908;10.850;2023-12-20T07:53:29;3.30;99.90
8172;DHT22;4127;47.908;10.850;2023-12-20T07:55:56;3.40;99.90
8172;DHT22;4127;47.908;10.850;2023-12-20T07:58:23;3.30;99.90
8172;DHT22;4127;47.908;10.850;2023-12-20T08:01:06;3.30;99.90
8172;DHT22;4127;47.908;10.850;2023-12-20T08:03:40;3.30;99.90
8172;DHT22;4127;47.908;10.850;2023-12-20T08:06:07;3.30;99.90
8172;DHT22;4127;47.908;10.850;2023-12-20T08:08:34;3.30;99.90
8172;DHT22;4127;47.908;10.850;2023-12-20T08:11:01;3.30;99.90
8172;DHT22;4127;47.908;10.850;2023-12-20T08:13:28;3.30;99.90
8172;DHT22;4127;47.908;10.850;2023-12-20T08:15:56;3.30;99.90
8172;DHT22;4127;47.908;10.850;2023-12-20T08:18:23;3.30;99.90
8172;DHT22;4127;47.908;10.850;2023-12-20T08:20:50;3.30;99.90
8172;DHT22;4127;47.908;10.850;2023-12-20T08:23:19;3.30;99.90
8172;DHT22;4127;47.908;10.850;2023-12-20T08:25:50;3.30;99.90
8172;DHT22;4127;47.908;10.850;2023-12-20T08:28:17;3.30;99.90
8172;DHT22;4127;47.908;10.850;2023-12-20T08:30:44;3.40;99.90
8172;DHT22;4127;47.908;10.850;2023-12-20T08:33:11;3.30;99.90
8172;DHT22;4127;47.908;10.850;2023-12-20T08:35:40;3.30;99.90
8172;DHT22;4127;47.908;10.850;2023-12-20T08:38:07;3.40;99.90
8172;DHT22;4127;47.908;10.850;2023-12-20T08:40:34;3.40;99.90
8172;DHT22;4127;47.908;10.850;2023-12-20T08:43:01;3.40;99.90
8172;DHT22;4127;47.908;10.850;2023-12-20T08:45:28;3.50;99.90
8172;DHT22;4127;47.908;10.850;2023-12-20T08:47:55;3.50;99.90
8172;DHT22;4127;47.908;10.850;2023-12-20T08:50:25;3.60;99.90
8172;DHT22;4127;47.908;10.850;2023-12-20T08:52:52;3.60;99.90
8172;DHT22;4127;47.908;10.850;2023-12-20T08:55:19;3.60;99.90
8172;DHT22;4127;47.908;10.850;2023-12-20T08:57:46;3.60;99.90
8172;DHT22;4127;47.908;10.850;2023-12-20T09:00:14;3.70;99.90
8172;DHT22;4127;47.908;10.850;2023-12-20T09:02:41;3.60;99.90
8172;DHT22;4127;47.908;10.850;2023-12-20T09:05:08;3.70;99.90
8172;DHT22;4127;47.908;10.850;2023-12-20T09:07:35;3.80;99.90
8172;DHT22;4127;47.908;10.850;2023-12-20T09:10:02;3.80;99.90
8172;DHT22;4127;47.908;10.850;2023-12-20T09:12:30;3.80;99.90
8172;DHT22;4127;47.908;10.850;2023-12-20T09:14:57;3.90;99.90
8172;DHT22;4127;47.908;10.850;2023-12-20T09:17:24;3.90;99.90
8172;DHT22;4127;47.908;10.850;2023-12-20T09:19:52;3.90;99.90
8172;DHT22;4127;47.908;10.850;2023-12-20T09:22:21;3.90;99.90
8172;DHT22;4127;47.908;10.850;2023-12-20T09:24:48;4.00;99.90
8172;DHT22;4127;47.908;10.850;2023-12-20T09:27:15;4.00;99.90
8172;DHT22;4127;47.908;10.850;2023-12-20T09:29:42;4.00;99.90
8172;DHT22;4127;47.908;10.850;2023-12-20T09:32:09;4.00;99.90
8172;DHT22;4127;47.908;10.850;2023-12-20T09:34:36;4.10;99.90
8172;DHT22;4127;47.908;10.850;2023-12-20T09:37:04;4.10;99.90
8172;DHT22;4127;47.908;10.850;2023-12-20T09:39:32;4.10;99.90
8172;DHT22;4127;47.908;10.850;2023-12-20T09:42:06;4.10;99.90
8172;DHT22;4127;47.908;10.850;2023-12-20T09:44:33;4.10;99.90
8172;DHT22;4127;47.908;10.850;2023-12-20T09:47:04;4.10;99.90
8172;DHT22;4127;47.908;10.850;2023-12-20T09:49:32;4.10;99.90
8172;DHT22;4127;47.908;10.850;2023-12-20T09:52:00;4.20;99.90
8172;DHT22;4127;47.908;10.850;2023-12-20T09:54:28;4.30;99.90
8172;DHT22;4127;47.908;10.850;2023-12-20T09:56:55;4.30;99.90
8172;DHT22;4127;47.908;10.850;2023-12-20T09:59:22;4.30;99.90
8172;DHT22;4127;47.908;10.850;2023-12-20T10:01:50;4.30;99.90
8172;DHT22;4127;47.908;10.850;2023-12-20T10:04:21;4.30;99.90
8172;DHT22;4127;47.908;10.850;2023-12-20T10:06:56;4.40;99.90
8172;DHT22;4127;47.908;10.850;2023-12-20T10:09:24;4.40;99.90
8172;DHT22;4127;47.908;10.850;2023-12-20T10:11:54;4.30;99.90
8172;DHT22;4127;47.908;10.850;2023-12-20T10:14:21;4.40;99.90
8172;DHT22;4127;47.908;10.850;2023-12-20T10:16:49;4.40;99.90
8172;DHT22;4127;47.908;10.850;2023-12-20T10:19:17;4.40;99.90
8172;DHT22;4127;47.908;10.850;2023-12-20T10:21:45;4.50;99.90
8172;DHT22;4127;47.908;10.850;2023-12-20T10:24:17;4.50;99.90
8172;DHT22;4127;47.908;10.850;2023-12-20T10:26:44;4.60;99.90
8172;DHT22;4127;47.908;10.850;2023-12-20T10:29:11;4.60;99.90
8172;DHT22;4127;47.908;10.850;2023-12-20T10:31:38;4.60;99.90
8172;DHT22;4127;47.908;10.850;2023-12-20T10:34:05;4.60;99.90
8172;DHT22;4127;47.908;10.850;2023-12-20T10:36:33;4.60;99.90
8172;DHT22;4127;47.908;10.850;2023-12-20T10:39:00;4.60;99.90
8172;DHT22;4127;47.908;10.850;2023-12-20T10:41:32;4.60;99.90
8172;DHT22;4127;47.908;10.850;2023-12-20T10:44:03;4.60;99.90
8172;DHT22;4127;47.908;10.850;2023-12-20T10:46:34;4.70;99.90
8172;DHT22;4127;47.908;10.850;2023-12-20T10:49:05;4.70;99.90
8172;DHT22;4127;47.908;10.850;2023-12-20T10:51:34;4.70;99.90
8172;DHT22;4127;47.908;10.850;2023-12-20T10:54:01;4.70;99.90
8172;DHT22;4127;47.908;10.850;2023-12-20T10:56:32;4.70;99.90
8172;DHT22;4127;47.908;10.850;2023-12-20T10:59:02;4.70;99.90
8172;DHT22;4127;47.908;10.850;2023-12-20T11:01:32;4.80;99.90
8172;DHT22;4127;47.908;10.850;2023-12-20T11:04:01;4.80;99.90
8172;DHT22;4127;47.908;10.850;2023-12-20T11:06:42;4.80;99.90
8172;DHT22;4127;47.908;10.850;2023-12-20T11:09:20;4.80;99.90
8172;DHT22;4127;47.908;10.850;2023-12-20T11:17:11;4.80;99.90
8172;DHT22;4127;47.908;10.850;2023-12-20T11:22:24;4.80;99.90
8172;DHT22;4127;47.908;10.850;2023-12-20T11:24:53;4.80;99.90
8172;DHT22;4127;47.908;10.850;2023-12-20T11:27:20;4.80;99.90
8172;DHT22;4127;47.908;10.850;2023-12-20T11:29:52;4.70;99.90
8172;DHT22;4127;47.908;10.850;2023-12-20T11:34:54;4.70;99.90
8172;DHT22;4127;47.908;10.850;2023-12-20T11:37:22;4.70;99.90
8172;DHT22;4127;47.908;10.850;2023-12-20T11:39:56;4.70;99.90
8172;DHT22;4127;47.908;10.850;2023-12-20T11:42:26;4.70;99.90
8172;DHT22;4127;47.908;10.850;2023-12-20T11:44:53;4.70;99.90
8172;DHT22;4127;47.908;10.850;2023-12-20T11:47:20;4.80;99.90
8172;DHT22;4127;47.908;10.850;2023-12-20T11:49:47;4.80;99.90
8172;DHT22;4127;47.908;10.850;2023-12-20T11:52:15;4.80;99.90
8172;DHT22;4127;47.908;10.850;2023-12-20T11:54:42;4.80;99.90
8172;DHT22;4127;47.908;10.850;2023-12-20T11:57:09;4.90;99.90
8172;DHT22;4127;47.908;10.850;2023-12-20T11:59:36;4.90;99.90
8172;DHT22;4127;47.908;10.850;2023-12-20T12:02:03;4.90;99.90
8172;DHT22;4127;47.908;10.850;2023-12-20T12:04:30;5.00;99.90
8172;DHT22;4127;47.908;10.850;2023-12-20T12:06:57;5.00;99.90
8172;DHT22;4127;47.908;10.850;2023-12-20T12:09:24;5.00;99.90
8172;DHT22;4127;47.908;10.850;2023-12-20T12:11:51;5.00;99.90
8172;DHT22;4127;47.908;10.850;2023-12-20T12:14:18;5.00;99.90
8172;DHT22;4127;47.908;10.850;2023-12-20T12:16:46;5.10;99.90
8172;DHT22;4127;47.908;10.850;2023-12-20T12:19:25;5.10;99.90
8172;DHT22;4127;47.908;10.850;2023-12-20T12:22:10;5.10;99.90
8172;DHT22;4127;47.908;10.850;2023-12-20T12:24:43;5.00;99.90
8172;DHT22;4127;47.908;10.850;2023-12-20T12:27:11;5.00;99.90
8172;DHT22;4127;47.908;10.850;2023-12-20T12:29:38;5.00;99.90
8172;DHT22;4127;47.908;10.850;2023-12-20T12:32:09;5.00;99.90
8172;DHT22;4127;47.908;10.850;2023-12-20T12:34:36;5.00;99.90
8172;DHT22;4127;47.908;10.850;2023-12-20T12:37:04;5.00;99.90
8172;DHT22;4127;47.908;10.850;2023-12-20T12:39:31;5.00;99.90
8172;DHT22;4127;47.908;10.850;2023-12-20T12:41:58;5.00;99.90
8172;DHT22;4127;47.908;10.850;2023-12-20T12:44:25;5.00;99.90
8172;DHT22;4127;47.908;10.850;2023-12-20T12:46:52;5.00;99.90
8172;DHT22;4127;47.908;10.850;2023-12-20T12:49:21;5.00;99.90
8172;DHT22;4127;47.908;10.850;2023-12-20T12:51:51;5.00;99.90
8172;DHT22;4127;47.908;10.850;2023-12-20T12:54:18;5.00;99.90
8172;DHT22;4127;47.908;10.850;2023-12-20T12:56:45;5.00;99.90
8172;DHT22;4127;47.908;10.850;2023-12-20T12:59:14;5.10;99.90
8172;DHT22;4127;47.908;10.850;2023-12-20T13:01:41;5.10;99.90
8172;DHT22;4127;47.908;10.850;2023-12-20T13:04:08;5.00;99.90
8172;DHT22;4127;47.908;10.850;2023-12-20T13:06:38;5.00;99.90
8172;DHT22;4127;47.908;10.850;2023-12-20T13:09:07;5.00;99.90
8172;DHT22;4127;47.908;10.850;2023-12-20T13:11:36;4.90;99.90
8172;DHT22;4127;47.908;10.850;2023-12-20T13:14:03;4.90;99.90
8172;DHT22;4127;47.908;10.850;2023-12-20T13:16:30;5.00;99.90
8172;DHT22;4127;47.908;10.850;2023-12-20T13:18:59;5.00;99.90
8172;DHT22;4127;47.908;10.850;2023-12-20T13:21:27;5.00;99.90
8172;DHT22;4127;47.908;10.850;2023-12-20T13:23:54;5.10;99.90
8172;DHT22;4127;47.908;10.850;2023-12-20T13:26:21;5.10;99.90
8172;DHT22;4127;47.908;10.850;2023-12-20T13:28:48;5.10;99.90
8172;DHT22;4127;47.908;10.850;2023-12-20T13:31:15;5.10;99.90
8172;DHT22;4127;47.908;10.850;2023-12-20T13:33:42;5.10;99.90
8172;DHT22;4127;47.908;10.850;2023-12-20T13:36:09;5.10;99.90
8172;DHT22;4127;47.908;10.850;2023-12-20T13:38:36;5.10;99.90
8172;DHT22;4127;47.908;10.850;2023-12-20T13:41:03;5.10;99.90
8172;DHT22;4127;47.908;10.850;2023-12-20T13:43:32;5.20;99.90
8172;DHT22;4127;47.908;10.850;2023-12-20T13:45:59;5.20;99.90
8172;DHT22;4127;47.908;10.850;2023-12-20T13:48:26;5.20;99.90
8172;DHT22;4127;47.908;10.850;2023-12-20T13:50:53;5.20;99.90
8172;DHT22;4127;47.908;10.850;2023-12-20T13:53:21;5.20;99.90
8172;DHT22;4127;47.908;10.850;2023-12-20T13:55:48;5.20;99.90
8172;DHT22;4127;47.908;10.850;2023-12-20T13:58:16;5.20;99.90
8172;DHT22;4127;47.908;10.850;2023-12-20T14:00:43;5.20;99.90
8172;DHT22;4127;47.908;10.850;2023-12-20T14:03:10;5.20;99.90
8172;DHT22;4127;47.908;10.850;2023-12-20T14:05:37;5.10;99.90
8172;DHT22;4127;47.908;10.850;2023-12-20T14:08:04;5.10;99.90
8172;DHT22;4127;47.908;10.850;2023-12-20T14:10:31;4.90;99.90
8172;DHT22;4127;47.908;10.850;2023-12-20T14:12:58;4.80;99.90
8172;DHT22;4127;47.908;10.850;2023-12-20T14:15:25;4.60;99.90
8172;DHT22;4127;47.908;10.850;2023-12-20T14:17:53;4.50;99.90
8172;DHT22;4127;47.908;10.850;2023-12-20T14:20:20;4.40;99.90
8172;DHT22;4127;47.908;10.850;2023-12-20T14:22:47;4.40;99.90
8172;DHT22;4127;47.908;10.850;2023-12-20T14:25:14;4.30;99.90
8172;DHT22;4127;47.908;10.850;2023-12-20T14:27:42;4.20;99.90
8172;DHT22;4127;47.908;10.850;2023-12-20T14:30:13;4.20;99.90
8172;DHT22;4127;47.908;10.850;2023-12-20T14:32:41;4.10;99.90
8172;DHT22;4127;47.908;10.850;2023-12-20T14:35:09;4.10;99.90
8172;DHT22;4127;47.908;10.850;2023-12-20T14:37:36;4.10;99.90
8172;DHT22;4127;47.908;10.850;2023-12-20T14:40:09;4.10;99.90
8172;DHT22;4127;47.908;10.850;2023-12-20T14:42:38;4.10;99.90
8172;DHT22;4127;47.908;10.850;2023-12-20T14:45:05;4.10;99.90
8172;DHT22;4127;47.908;10.850;2023-12-20T14:47:32;4.10;99.90
8172;DHT22;4127;47.908;10.850;2023-12-20T14:49:59;4.10;99.90
8172;DHT22;4127;47.908;10.850;2023-12-20T14:52:26;4.10;99.90
8172;DHT22;4127;47.908;10.850;2023-12-20T14:54:53;4.10;99.90
8172;DHT22;4127;47.908;10.850;2023-12-20T14:57:20;4.00;99.90
8172;DHT22;4127;47.908;10.850;2023-12-20T14:59:47;4.00;99.90
8172;DHT22;4127;47.908;10.850;2023-12-20T15:02:14;4.00;99.90
8172;DHT22;4127;47.908;10.850;2023-12-20T15:04:42;4.00;99.90
8172;DHT22;4127;47.908;10.850;2023-12-20T15:07:09;4.00;99.90
8172;DHT22;4127;47.908;10.850;2023-12-20T15:09:36;3.90;99.90
8172;DHT22;4127;47.908;10.850;2023-12-20T15:12:03;3.90;99.90
8172;DHT22;4127;47.908;10.850;2023-12-20T15:14:31;4.00;99.90
8172;DHT22;4127;47.908;10.850;2023-12-20T15:16:58;4.00;99.90
8172;DHT22;4127;47.908;10.850;2023-12-20T15:19:25;4.00;99.90
8172;DHT22;4127;47.908;10.850;2023-12-20T15:21:52;4.00;99.90
8172;DHT22;4127;47.908;10.850;2023-12-20T15:24:19;4.00;99.90
8172;DHT22;4127;47.908;10.850;2023-12-20T15:26:46;4.00;99.90
8172;DHT22;4127;47.908;10.850;2023-12-20T15:29:14;4.00;99.90
8172;DHT22;4127;47.908;10.850;2023-12-20T15:31:46;4.00;99.90
8172;DHT22;4127;47.908;10.850;2023-12-20T15:34:14;4.00;99.90
8172;DHT22;4127;47.908;10.850;2023-12-20T15:36:42;4.00;99.90
8172;DHT22;4127;47.908;10.850;2023-12-20T15:39:09;4.10;99.90
8172;DHT22;4127;47.908;10.850;2023-12-20T15:41:36;4.00;99.90
8172;DHT22;4127;47.908;10.850;2023-12-20T15:44:03;3.90;99.90
8172;DHT22;4127;47.908;10.850;2023-12-20T15:46:30;3.90;99.90
8172;DHT22;4127;47.908;10.850;2023-12-20T15:48:57;3.90;99.90
8172;DHT22;4127;47.908;10.850;2023-12-20T15:51:24;3.90;99.90
8172;DHT22;4127;47.908;10.850;2023-12-20T15:53:51;3.90;99.90
8172;DHT22;4127;47.908;10.850;2023-12-20T15:56:18;3.90;99.90
8172;DHT22;4127;47.908;10.850;2023-12-20T15:58:46;3.90;99.90
8172;DHT22;4127;47.908;10.850;2023-12-20T16:01:18;3.90;99.90
8172;DHT22;4127;47.908;10.850;2023-12-20T16:03:46;4.00;99.90
8172;DHT22;4127;47.908;10.850;2023-12-20T16:06:24;3.90;99.90
8172;DHT22;4127;47.908;10.850;2023-12-20T16:08:51;3.80;99.90
8172;DHT22;4127;47.908;10.850;2023-12-20T16:11:18;3.70;99.90
8172;DHT22;4127;47.908;10.850;2023-12-20T16:13:45;3.50;99.90
8172;DHT22;4127;47.908;10.850;2023-12-20T16:16:12;3.50;99.90
8172;DHT22;4127;47.908;10.850;2023-12-20T16:18:39;3.50;99.90
8172;DHT22;4127;47.908;10.850;2023-12-20T16:21:06;3.40;99.90